createdAt,value
2018-01-19T00:01:18.557Z,1.37
2018-01-19T00:03:46.126Z,1.60
2018-01-19T00:06:14.252Z,5.03
2018-01-19T00:08:42.140Z,1.50
2018-01-19T00:11:10.494Z,1.75
2018-01-19T00:13:38.073Z,2.55
2018-01-19T00:16:05.854Z,4.05
2018-01-19T00:18:36.113Z,1.98
2018-01-19T00:21:03.701Z,7.37
2018-01-19T00:23:31.283Z,2.60
2018-01-19T00:25:59.083Z,4.30
2018-01-19T00:28:27.037Z,9.50
2018-01-19T00:30:54.618Z,6.93
2018-01-19T00:33:23.006Z,2.70
2018-01-19T00:35:51.358Z,8.05
2018-01-19T00:38:18.951Z,3.10
2018-01-19T00:40:47.404Z,3.50
2018-01-19T00:43:14.986Z,6.28
2018-01-19T00:45:43.546Z,6.55
2018-01-19T00:48:11.127Z,7.43
2018-01-19T00:50:38.838Z,5.12
2018-01-19T00:53:06.582Z,6.10
2018-01-19T00:55:35.104Z,13.23
2018-01-19T00:58:02.708Z,3.03
2018-01-19T01:00:30.302Z,10.18
2018-01-19T01:02:59.106Z,5.57
2018-01-19T01:05:28.299Z,7.65
2018-01-19T01:07:56.547Z,4.60
2018-01-19T01:10:24.221Z,8.55
2018-01-19T01:12:51.802Z,5.37
2018-01-19T01:15:19.394Z,3.05
2018-01-19T01:17:46.978Z,6.82
2018-01-19T01:20:14.836Z,8.60
2018-01-19T01:22:44.171Z,3.40
2018-01-19T01:25:11.754Z,7.40
2018-01-19T01:27:39.442Z,6.78
2018-01-19T01:30:07.781Z,3.80
2018-01-19T01:32:35.371Z,12.52
2018-01-19T01:35:03.044Z,4.75
2018-01-19T01:37:31.394Z,5.55
2018-01-19T01:39:58.975Z,5.15
2018-01-19T01:42:26.559Z,4.60
2018-01-19T01:44:54.950Z,17.67
2018-01-19T01:47:23.298Z,6.97
2018-01-19T01:49:51.058Z,8.98
2018-01-19T01:52:18.642Z,5.62
2018-01-19T01:54:46.230Z,4.87
2018-01-19T01:57:14.579Z,6.70
2018-01-19T01:59:42.223Z,3.78
2018-01-19T02:02:09.847Z,7.97
2018-01-19T02:04:38.330Z,6.87
2018-01-19T02:07:05.918Z,8.10
2018-01-19T02:09:33.495Z,6.53
2018-01-19T02:12:01.106Z,2.50
2018-01-19T02:14:28.924Z,5.78
2018-01-19T02:16:56.510Z,4.60
2018-01-19T02:19:24.090Z,9.60
2018-01-19T02:21:51.668Z,4.22
2018-01-19T02:24:19.270Z,3.75
2018-01-19T02:26:46.850Z,8.07
2018-01-19T02:29:14.504Z,6.75
2018-01-19T02:31:42.090Z,4.32
2018-01-19T02:34:09.670Z,8.23
2018-01-19T02:36:37.351Z,6.28
2018-01-19T02:39:04.966Z,7.40
2018-01-19T02:41:32.663Z,12.37
2018-01-19T02:44:00.391Z,9.48
2018-01-19T02:46:27.982Z,7.03
2018-01-19T02:48:55.610Z,3.65
2018-01-19T02:51:24.021Z,2.28
2018-01-19T02:53:51.675Z,6.10
2018-01-19T02:56:22.092Z,4.28
2018-01-19T02:58:49.695Z,5.28
2018-01-19T03:01:17.341Z,5.10
2018-01-19T03:03:44.954Z,3.62
2018-01-19T03:06:12.734Z,6.65
2018-01-19T03:08:41.375Z,4.07
2018-01-19T03:11:09.078Z,6.45
2018-01-19T03:13:36.654Z,4.25
2018-01-19T03:16:04.263Z,8.55
2018-01-19T03:18:33.121Z,4.68
2018-01-19T03:21:00.847Z,4.62
2018-01-19T03:23:28.438Z,5.28
2018-01-19T03:25:56.028Z,4.65
2018-01-19T03:28:23.630Z,4.60
2018-01-19T03:30:51.268Z,3.95
2018-01-19T03:33:18.866Z,4.70
2018-01-19T03:35:46.450Z,2.00
2018-01-19T03:38:14.029Z,2.67
2018-01-19T03:40:41.626Z,6.05
2018-01-19T03:43:09.202Z,3.05
2018-01-19T03:45:36.908Z,3.05
2018-01-19T03:48:04.482Z,4.62
2018-01-19T03:50:32.234Z,10.55
2018-01-19T03:52:59.835Z,4.03
2018-01-19T03:55:27.451Z,2.45
2018-01-19T03:57:55.042Z,2.00
2018-01-19T04:00:22.654Z,4.55
2018-01-19T04:02:50.233Z,2.33
2018-01-19T04:05:17.815Z,11.60
2018-01-19T04:07:45.395Z,5.65
2018-01-19T04:10:12.986Z,4.57
2018-01-19T04:12:40.589Z,6.05
2018-01-19T04:15:08.463Z,3.55
2018-01-19T04:17:36.067Z,5.35
2018-01-19T04:20:03.782Z,5.95
2018-01-19T04:22:31.384Z,2.87
2018-01-19T04:24:58.994Z,2.58
2018-01-19T04:27:27.454Z,5.12
2018-01-19T04:29:55.030Z,5.20
2018-01-19T04:32:22.805Z,3.72
2018-01-19T04:34:51.378Z,4.25
2018-01-19T04:37:18.966Z,3.12
2018-01-19T04:39:47.371Z,10.88
2018-01-19T04:42:14.984Z,5.87
2018-01-19T04:44:42.591Z,6.78
2018-01-19T04:47:10.970Z,3.25
2018-01-19T04:49:39.038Z,4.15
2018-01-19T04:52:06.649Z,2.55
2018-01-19T04:54:34.350Z,5.97
2018-01-19T04:57:01.961Z,4.05
2018-01-19T04:59:29.582Z,7.62
2018-01-19T05:01:57.189Z,3.45
2018-01-19T05:04:24.916Z,8.00
2018-01-19T05:06:52.542Z,5.12
2018-01-19T05:09:20.255Z,8.32
2018-01-19T05:11:47.865Z,4.07
2018-01-19T05:14:15.701Z,6.28
2018-01-19T05:16:44.070Z,3.28
2018-01-19T05:19:11.703Z,4.70
2018-01-19T05:21:39.371Z,5.62
2018-01-19T05:24:06.981Z,4.18
2018-01-19T05:26:35.346Z,7.47
2018-01-19T05:29:02.961Z,6.35
2018-01-19T05:31:30.590Z,9.50
2018-01-19T05:33:59.170Z,8.60
2018-01-19T05:36:26.834Z,4.97
2018-01-19T05:38:54.482Z,7.80
2018-01-19T05:41:22.098Z,5.85
2018-01-19T05:43:49.717Z,6.07
2018-01-19T05:46:17.341Z,8.75
2018-01-19T05:48:44.956Z,4.57
2018-01-19T05:51:12.557Z,6.37
2018-01-19T05:53:40.198Z,7.87
2018-01-19T05:56:07.833Z,6.75
2018-01-19T05:58:35.453Z,7.70
2018-01-19T06:01:03.056Z,5.53
2018-01-19T06:03:30.705Z,3.50
2018-01-19T06:05:58.365Z,4.78
2018-01-19T06:08:25.997Z,6.62
2018-01-19T06:10:54.361Z,7.30
2018-01-19T06:13:22.074Z,4.85
2018-01-19T06:15:49.682Z,5.07
2018-01-19T06:18:17.297Z,5.82
2018-01-19T06:20:44.953Z,3.70
2018-01-19T06:23:13.353Z,9.70
2018-01-19T06:25:40.962Z,9.77
2018-01-19T06:28:08.602Z,4.60
2018-01-19T06:30:36.225Z,7.53
2018-01-19T06:33:04.652Z,5.00
2018-01-19T06:35:32.253Z,7.50
2018-01-19T06:37:59.862Z,4.60
2018-01-19T06:40:27.470Z,6.32
2018-01-19T06:42:55.081Z,9.65
2018-01-19T06:45:22.694Z,15.23
2018-01-19T06:47:50.365Z,14.55
2018-01-19T06:50:17.977Z,17.20
2018-01-19T06:52:46.353Z,5.57
2018-01-19T06:55:13.957Z,5.95
2018-01-19T06:57:41.574Z,12.90
2018-01-19T07:00:09.299Z,8.27
2018-01-19T07:02:36.927Z,5.05
2018-01-19T07:05:05.305Z,12.27
2018-01-19T07:07:32.930Z,6.35
2018-01-19T07:10:00.642Z,4.95
2018-01-19T07:12:29.058Z,7.28
2018-01-19T07:14:56.665Z,5.97
2018-01-19T07:17:24.323Z,7.78
2018-01-19T07:19:51.942Z,8.57
2018-01-19T07:22:19.574Z,4.12
2018-01-19T07:24:47.223Z,5.30
2018-01-19T07:27:14.838Z,6.32
2018-01-19T07:29:42.469Z,6.43
2018-01-19T07:32:10.073Z,7.18
2018-01-19T07:34:37.741Z,7.80
2018-01-19T07:37:05.374Z,4.22
2018-01-19T07:39:33.792Z,9.35
2018-01-19T07:42:01.490Z,9.25
2018-01-19T07:44:29.105Z,9.75
2018-01-19T07:46:56.746Z,7.10
2018-01-19T07:49:24.369Z,26.62
2018-01-19T07:51:51.974Z,7.80
2018-01-19T07:54:19.606Z,6.40
2018-01-19T07:56:47.319Z,12.37
2018-01-19T07:59:14.894Z,9.50
2018-01-19T08:01:43.287Z,4.82
2018-01-19T08:04:10.897Z,8.75
2018-01-19T08:06:38.507Z,12.18
2018-01-19T08:09:06.159Z,8.32
2018-01-19T08:11:34.613Z,17.02
2018-01-19T08:14:02.239Z,15.13
2018-01-19T08:16:29.846Z,12.77
2018-01-19T08:18:57.486Z,10.95
2018-01-19T08:21:25.150Z,9.43
2018-01-19T08:23:52.745Z,7.55
2018-01-19T08:26:20.356Z,9.43
2018-01-19T08:28:47.962Z,7.80
2018-01-19T08:31:15.826Z,6.55
2018-01-19T08:33:43.431Z,8.80
2018-01-19T08:36:11.074Z,12.65
2018-01-19T08:38:38.693Z,13.13
2018-01-19T08:41:06.306Z,7.62
2018-01-19T08:43:33.911Z,13.82
2018-01-19T08:46:01.518Z,8.00
2018-01-19T08:48:29.163Z,7.95
2018-01-19T08:50:56.773Z,10.00
2018-01-19T08:53:24.385Z,11.70
2018-01-19T08:55:52.037Z,12.15
2018-01-19T08:58:20.552Z,19.58
2018-01-19T09:00:48.350Z,18.67
2018-01-19T09:03:16.970Z,18.15
2018-01-19T09:05:45.318Z,18.90
2018-01-19T09:08:13.835Z,11.12
2018-01-19T09:10:42.298Z,10.75
2018-01-19T09:13:09.885Z,10.18
2018-01-19T09:15:37.531Z,13.27
2018-01-19T09:18:05.122Z,10.00
2018-01-19T09:20:33.533Z,22.77
2018-01-19T09:23:01.138Z,9.90
2018-01-19T09:25:33.416Z,14.30
2018-01-19T09:28:01.052Z,8.60
2018-01-19T09:30:28.720Z,14.57
2018-01-19T09:32:58.324Z,12.80
2018-01-19T09:35:25.901Z,12.57
2018-01-19T09:37:53.490Z,13.73
2018-01-19T09:40:21.071Z,9.25
2018-01-19T09:42:48.699Z,10.80
2018-01-19T09:45:16.299Z,8.57
2018-01-19T09:47:43.957Z,13.07
2018-01-19T09:50:11.554Z,7.68
2018-01-19T09:52:43.810Z,6.07
2018-01-19T09:55:12.276Z,15.77
2018-01-19T09:57:39.863Z,10.63
2018-01-19T10:00:07.454Z,12.73
2018-01-19T10:02:35.038Z,10.52
2018-01-19T10:05:02.643Z,11.57
2018-01-19T10:07:30.233Z,15.05
2018-01-19T10:09:58.646Z,11.55
2018-01-19T10:12:26.221Z,8.13
2018-01-19T10:14:53.806Z,11.63
2018-01-19T10:17:21.398Z,16.65
2018-01-19T10:19:49.757Z,12.35
2018-01-19T10:22:17.338Z,12.40
2018-01-19T10:24:44.918Z,13.57
2018-01-19T10:27:13.270Z,16.20
2018-01-19T10:29:40.862Z,19.83
2018-01-19T10:32:09.255Z,15.50
2018-01-19T10:34:37.609Z,10.88
2018-01-19T10:37:05.204Z,35.05
2018-01-19T10:39:32.810Z,30.15
2018-01-19T10:42:00.400Z,37.33
2018-01-19T10:44:28.006Z,39.17
2018-01-19T10:46:55.658Z,64.82
2018-01-19T10:49:24.014Z,58.97
2018-01-19T10:51:51.609Z,23.98
2018-01-19T10:54:19.969Z,23.30
2018-01-19T10:56:47.551Z,20.95
2018-01-19T10:59:16.027Z,10.07
2018-01-19T11:01:44.403Z,15.10
2018-01-19T11:04:11.978Z,8.77
2018-01-19T11:06:40.404Z,15.10
2018-01-19T11:09:07.991Z,15.65
2018-01-19T11:11:35.641Z,12.93
2018-01-19T11:14:03.250Z,11.20
2018-01-19T11:16:30.870Z,12.82
2018-01-19T11:18:58.455Z,15.40
2018-01-19T11:21:26.058Z,15.40
2018-01-19T11:23:54.478Z,11.43
2018-01-19T11:26:22.087Z,23.58
2018-01-19T11:28:49.674Z,11.25
2018-01-19T11:31:18.032Z,16.27
2018-01-19T11:33:45.619Z,13.73
2018-01-19T11:36:13.970Z,21.37
2018-01-19T11:38:41.562Z,12.05
2018-01-19T11:41:09.916Z,16.08
2018-01-19T11:43:37.497Z,8.68
2018-01-19T11:46:05.081Z,10.07
2018-01-19T11:48:33.427Z,12.57
2018-01-19T11:51:01.019Z,19.20
2018-01-19T11:53:29.370Z,11.45
2018-01-19T11:55:56.945Z,13.90
2018-01-19T11:58:24.530Z,10.95
2018-01-19T12:00:52.878Z,16.40
2018-01-19T12:03:20.458Z,12.80
2018-01-19T12:05:48.074Z,14.38
2018-01-19T12:08:15.657Z,12.70
2018-01-19T12:10:43.261Z,9.60
2018-01-19T12:13:10.885Z,8.20
2018-01-19T12:15:38.477Z,10.07
2018-01-19T12:18:13.781Z,8.63
2018-01-19T12:20:41.370Z,8.75
2018-01-19T12:23:08.954Z,17.52
2018-01-19T12:25:36.547Z,13.30
2018-01-19T12:28:04.132Z,11.52
2018-01-19T12:30:31.715Z,12.10
2018-01-19T12:32:59.297Z,13.55
2018-01-19T12:35:26.883Z,16.73
2018-01-19T12:37:54.479Z,8.10
2018-01-19T12:40:22.090Z,9.48
2018-01-19T12:42:49.831Z,10.95
2018-01-19T12:45:17.431Z,9.75
2018-01-19T12:47:45.080Z,18.75
2018-01-19T12:50:12.668Z,14.70
2018-01-19T12:52:40.295Z,8.60
2018-01-19T12:55:07.887Z,9.15
2018-01-19T12:57:35.515Z,10.93
2018-01-19T13:00:03.098Z,9.63
2018-01-19T13:02:30.680Z,10.98
2018-01-19T13:04:59.286Z,9.00
2018-01-19T13:07:26.869Z,14.75
2018-01-19T13:09:55.220Z,15.13
2018-01-19T13:12:22.811Z,11.48
2018-01-19T13:14:51.154Z,7.00
2018-01-19T13:17:18.730Z,6.70
2018-01-19T13:19:46.374Z,6.80
2018-01-19T13:22:13.993Z,10.95
2018-01-19T13:24:42.343Z,9.60
2018-01-19T13:27:09.963Z,11.32
2018-01-19T13:29:37.657Z,6.62
2018-01-19T13:32:05.239Z,9.70
2018-01-19T13:34:32.821Z,4.25
2018-01-19T13:37:00.426Z,7.78
2018-01-19T13:39:28.019Z,6.80
2018-01-19T13:41:55.594Z,7.53
2018-01-19T13:44:23.194Z,5.37
2018-01-19T13:46:51.566Z,9.95
2018-01-19T13:49:19.146Z,9.98
2018-01-19T13:51:47.494Z,4.43
2018-01-19T13:54:15.074Z,3.80
2018-01-19T13:56:42.707Z,9.30
2018-01-19T13:59:10.287Z,9.57
2018-01-19T14:01:37.874Z,14.32
2018-01-19T14:04:06.222Z,12.85
2018-01-19T14:06:33.814Z,22.92
2018-01-19T14:09:01.394Z,19.12
2018-01-19T14:11:29.787Z,24.08
2018-01-19T14:13:57.380Z,24.27
2018-01-19T14:16:24.955Z,17.50
2018-01-19T14:18:52.553Z,20.58
2018-01-19T14:21:20.159Z,34.95
2018-01-19T14:23:47.753Z,166.62
2018-01-19T14:26:15.343Z,164.77
2018-01-19T14:28:42.933Z,160.23
2018-01-19T14:31:10.518Z,104.85
2018-01-19T14:33:38.218Z,50.80
2018-01-19T14:36:05.815Z,44.90
2018-01-19T14:38:34.179Z,24.15
2018-01-19T14:41:01.763Z,26.92
2018-01-19T14:43:29.355Z,20.95
2018-01-19T14:45:56.938Z,9.30
2018-01-19T14:48:24.531Z,10.38
2018-01-19T14:50:52.111Z,11.12
2018-01-19T14:53:19.702Z,18.67
2018-01-19T14:55:48.513Z,12.57
2018-01-19T14:58:16.251Z,15.75
2018-01-19T15:00:43.997Z,12.80
2018-01-19T15:03:11.748Z,15.45
2018-01-19T15:05:39.425Z,8.18
2018-01-19T15:08:07.199Z,7.65
2018-01-19T15:10:34.999Z,7.93
2018-01-19T15:13:03.499Z,13.02
2018-01-19T15:15:31.239Z,12.68
2018-01-19T15:17:58.974Z,14.80
2018-01-19T15:20:26.781Z,9.20
2018-01-19T15:22:54.739Z,22.58
2018-01-19T15:25:22.479Z,11.68
2018-01-19T15:27:50.291Z,7.20
2018-01-19T15:30:18.769Z,11.23
2018-01-19T15:32:46.414Z,10.20
2018-01-19T15:35:14.054Z,6.25
2018-01-19T15:37:41.729Z,7.62
2018-01-19T15:40:10.421Z,6.10
2018-01-19T15:42:38.101Z,7.20
2018-01-19T15:45:05.817Z,7.15
2018-01-19T15:47:33.501Z,7.47
2018-01-19T15:50:01.168Z,16.30
2018-01-19T15:52:28.764Z,17.85
2018-01-19T15:54:56.342Z,14.20
2018-01-19T15:57:23.928Z,15.18
2018-01-19T15:59:51.539Z,41.85
2018-01-19T16:02:19.138Z,126.38
2018-01-19T16:04:46.749Z,96.80
2018-01-19T16:07:14.835Z,70.85
2018-01-19T16:09:42.434Z,76.28
2018-01-19T16:12:10.103Z,145.85
2018-01-19T16:14:38.178Z,81.10
2018-01-19T16:17:05.800Z,53.08
2018-01-19T16:19:33.698Z,30.02
2018-01-19T16:22:01.309Z,30.55
2018-01-19T16:24:28.922Z,27.95
2018-01-19T16:26:57.194Z,62.72
2018-01-19T16:29:25.175Z,14.05
2018-01-19T16:31:52.846Z,11.60
2018-01-19T16:34:21.587Z,17.62
2018-01-19T16:36:49.699Z,18.33
2018-01-19T16:39:17.383Z,7.65
2018-01-19T16:41:45.643Z,9.43
2018-01-19T16:44:13.650Z,16.02
2018-01-19T16:46:44.235Z,14.75
2018-01-19T16:49:13.358Z,10.32
2018-01-19T16:51:45.895Z,10.57
2018-01-19T16:54:14.845Z,10.25
2018-01-19T16:56:42.586Z,14.13
2018-01-19T16:59:11.242Z,37.67
2018-01-19T17:01:38.831Z,40.12
2018-01-19T17:04:07.192Z,16.27
2018-01-19T17:06:34.778Z,19.67
2018-01-19T17:09:03.539Z,27.95
2018-01-19T17:11:31.133Z,21.42
2018-01-19T17:14:01.398Z,20.05
2018-01-19T17:16:29.802Z,26.55
2018-01-19T17:18:57.397Z,21.83
2018-01-19T17:21:24.988Z,16.90
2018-01-19T17:23:52.586Z,32.08
2018-01-19T17:26:23.983Z,23.12
2018-01-19T17:28:51.945Z,21.70
2018-01-19T17:31:20.070Z,25.33
2018-01-19T17:33:47.662Z,22.75
2018-01-19T17:36:17.639Z,22.65
2018-01-19T17:38:45.432Z,32.58
2018-01-19T17:41:13.693Z,37.33
2018-01-19T17:43:41.647Z,41.10
2018-01-19T17:46:10.067Z,38.63
2018-01-19T17:48:38.790Z,32.30
2018-01-19T17:51:06.438Z,31.95
2018-01-19T17:56:09.713Z,25.35
2018-01-19T17:58:43.206Z,29.85
2018-01-19T18:01:10.799Z,30.35
2018-01-19T18:03:39.263Z,24.40
2018-01-19T18:06:07.895Z,29.05
2018-01-19T18:08:35.507Z,24.45
2018-01-19T18:11:06.239Z,24.85
2018-01-19T18:13:34.730Z,23.27
2018-01-19T18:16:05.328Z,21.92
2018-01-19T18:18:37.754Z,21.25
2018-01-19T18:21:05.389Z,28.35
2018-01-19T18:23:33.746Z,22.42
2018-01-19T18:26:02.178Z,21.75
2018-01-19T18:28:32.624Z,13.68
2018-01-19T18:31:03.327Z,19.98
2018-01-19T18:33:30.918Z,19.23
2018-01-19T18:35:58.674Z,20.15
2018-01-19T18:38:26.735Z,16.40
2018-01-19T18:40:55.418Z,17.37
2018-01-19T18:43:23.193Z,14.27
2018-01-19T18:45:52.338Z,15.48
2018-01-19T18:48:20.932Z,19.73
2018-01-19T18:50:51.356Z,18.67
2018-01-19T18:53:19.059Z,21.27
2018-01-19T18:55:46.666Z,16.80
2018-01-19T18:58:14.319Z,22.67
2018-01-19T19:00:42.681Z,23.62
2018-01-19T19:03:11.107Z,20.35
2018-01-19T19:05:38.714Z,18.62
2018-01-19T19:08:06.316Z,22.30
2018-01-19T19:10:34.239Z,15.20
2018-01-19T19:13:01.887Z,18.00
2018-01-19T19:15:29.594Z,28.90
2018-01-19T19:17:57.194Z,13.73
2018-01-19T19:20:24.803Z,15.70
2018-01-19T19:22:52.582Z,10.85
2018-01-19T19:25:20.235Z,18.95
2018-01-19T19:27:47.851Z,15.05
2018-01-19T19:30:16.238Z,17.02
2018-01-19T19:32:43.902Z,20.45
2018-01-19T19:35:11.582Z,16.02
2018-01-19T19:37:39.178Z,18.95
2018-01-19T19:40:06.814Z,16.62
2018-01-19T19:42:34.453Z,19.20
2018-01-19T19:45:02.845Z,18.87
2018-01-19T19:47:30.608Z,17.58
2018-01-19T19:52:34.180Z,18.58
2018-01-19T19:55:06.938Z,20.42
2018-01-19T19:57:38.310Z,20.37
2018-01-19T20:00:07.042Z,17.35
2018-01-19T20:02:41.463Z,14.48
2018-01-19T20:05:09.252Z,18.55
2018-01-19T20:07:37.711Z,19.30
2018-01-19T20:10:07.365Z,17.80
2018-01-19T20:12:41.990Z,18.40
2018-01-19T20:15:30.057Z,14.85
2018-01-19T20:17:59.321Z,10.70
2018-01-19T20:20:26.911Z,14.75
2018-01-19T20:22:54.967Z,13.32
2018-01-19T20:25:22.549Z,12.98
2018-01-19T20:27:50.177Z,14.48
2018-01-19T20:30:17.824Z,13.85
2018-01-19T20:32:47.926Z,16.95
2018-01-19T20:35:15.527Z,10.80
2018-01-19T20:37:44.079Z,17.45
2018-01-19T20:40:12.847Z,12.70
2018-01-19T20:42:40.447Z,14.05
2018-01-19T20:45:09.540Z,13.23
2018-01-19T20:47:43.330Z,11.25
2018-01-19T20:50:11.858Z,11.30
2018-01-19T20:52:40.207Z,15.70
2018-01-19T20:55:07.851Z,11.15
2018-01-19T20:57:38.375Z,12.45
2018-01-19T21:00:08.694Z,12.85
2018-01-19T21:02:42.467Z,9.80
2018-01-19T21:05:17.216Z,10.10
2018-01-19T21:07:47.683Z,10.10
2018-01-19T21:10:16.152Z,14.57
2018-01-19T21:12:43.872Z,13.75
2018-01-19T21:15:11.980Z,14.23
2018-01-19T21:17:39.866Z,18.52
2018-01-19T21:20:07.868Z,10.32
2018-01-19T21:22:36.102Z,11.82
2018-01-19T21:25:03.803Z,9.40
2018-01-19T21:27:31.442Z,15.63
2018-01-19T21:29:59.944Z,12.15
2018-01-19T21:32:28.375Z,9.93
2018-01-19T21:34:59.490Z,12.07
2018-01-19T21:37:27.079Z,11.40
2018-01-19T21:39:55.556Z,15.93
2018-01-19T21:42:23.147Z,18.60
2018-01-19T21:44:51.527Z,18.77
2018-01-19T21:47:20.920Z,21.75
2018-01-19T21:49:53.380Z,10.23
2018-01-19T21:52:23.860Z,8.98
2018-01-19T21:54:51.464Z,8.02
2018-01-19T21:57:21.481Z,26.15
2018-01-19T21:59:51.914Z,12.18
2018-01-19T22:02:19.523Z,11.25
2018-01-19T22:04:47.692Z,13.82
2018-01-19T22:07:15.297Z,11.60
2018-01-19T22:09:43.738Z,9.10
2018-01-19T22:12:11.380Z,10.88
2018-01-19T22:14:38.986Z,10.32
2018-01-19T22:17:06.595Z,12.10
2018-01-19T22:19:34.393Z,12.75
2018-01-19T22:22:01.983Z,15.13
2018-01-19T22:24:29.879Z,13.18
2018-01-19T22:26:57.462Z,13.52
2018-01-19T22:29:25.099Z,12.63
2018-01-19T22:31:52.730Z,15.55
2018-01-19T22:34:20.344Z,13.27
2018-01-19T22:36:48.052Z,12.90
2018-01-19T22:39:15.681Z,15.43
2018-01-19T22:41:43.290Z,14.45
2018-01-19T22:44:10.878Z,13.35
2018-01-19T22:46:38.559Z,11.40
2018-01-19T22:49:06.918Z,14.95
2018-01-19T22:51:35.302Z,17.40
2018-01-19T22:54:03.658Z,17.98
2018-01-19T22:56:31.247Z,19.35
2018-01-19T22:58:59.618Z,13.90
2018-01-19T23:01:27.238Z,15.38
2018-01-19T23:03:54.841Z,16.90
2018-01-19T23:06:22.458Z,15.95
2018-01-19T23:08:50.047Z,16.20
2018-01-19T23:11:17.647Z,12.73
2018-01-19T23:13:45.286Z,14.70
2018-01-19T23:16:12.891Z,18.02
2018-01-19T23:18:41.255Z,15.73
2018-01-19T23:21:08.847Z,18.60
2018-01-19T23:23:37.210Z,16.37
2018-01-19T23:26:04.798Z,17.50
2018-01-19T23:28:33.187Z,19.15
2018-01-19T23:31:00.775Z,19.08
2018-01-19T23:33:28.367Z,22.95
2018-01-19T23:35:55.964Z,23.08
2018-01-19T23:38:23.563Z,21.23
2018-01-19T23:40:51.219Z,22.52
2018-01-19T23:43:18.826Z,22.35
2018-01-19T23:45:46.435Z,24.90
2018-01-19T23:48:14.815Z,20.58
2018-01-19T23:50:43.232Z,26.05
2018-01-19T23:53:10.839Z,22.83
2018-01-19T23:55:38.429Z,26.17
2018-01-19T23:58:06.791Z,25.30
